Pittsburgh, Pennsylvania
Traffic Map
Current Weather Conditions
Pittsburgh, Pennsylvania
Clear
Clear
16°
Feels Like: 16°
Wind Chill: 16° Ceiling: Unl
Heat Index: 16° Visibility: 10mi
Dew Point: Wind: 8mph
Humidity: 50% Direction: 260° (W)
Pressure: 30.08in Gusts: 0mph
Raw Report DataKAGC 260453Z 26007KT 10SM CLR 16/06 A3008 RMK AO2 SLP187 T01610056 402390161
Traffic Incident Summary
Active as of:
Severity:
Category:
InformationThere was an issue retrieving the traffic information for this location. Please try a different location or try again shortly.
Advertisements
Track Severe Weather on mobile